sensor_id;sensor_type;location;lat;lon;timestamp;P1;durP1;ratioP1;P2;durP2;ratioP2
36751;SDS011;22718;49.494;7.036;2023-11-21T00:02:17;2.95;;;0.90;;
36751;SDS011;22718;49.494;7.036;2023-11-21T00:04:43;3.92;;;1.00;;
36751;SDS011;22718;49.494;7.036;2023-11-21T00:07:12;4.13;;;0.90;;
36751;SDS011;22718;49.494;7.036;2023-11-21T00:09:40;3.63;;;0.93;;
36751;SDS011;22718;49.494;7.036;2023-11-21T00:12:09;4.93;;;1.95;;
36751;SDS011;22718;49.494;7.036;2023-11-21T00:14:40;5.25;;;0.90;;
36751;SDS011;22718;49.494;7.036;2023-11-21T00:17:06;4.05;;;0.73;;
36751;SDS011;22718;49.494;7.036;2023-11-21T00:19:32;3.65;;;0.93;;
36751;SDS011;22718;49.494;7.036;2023-11-21T00:22:02;5.60;;;0.85;;
36751;SDS011;22718;49.494;7.036;2023-11-21T00:24:34;3.55;;;0.68;;
36751;SDS011;22718;49.494;7.036;2023-11-21T00:27:00;2.08;;;0.57;;
36751;SDS011;22718;49.494;7.036;2023-11-21T00:29:25;4.85;;;0.55;;
36751;SDS011;22718;49.494;7.036;2023-11-21T00:31:52;2.78;;;0.47;;
36751;SDS011;22718;49.494;7.036;2023-11-21T00:34:21;5.10;;;0.80;;
36751;SDS011;22718;49.494;7.036;2023-11-21T00:36:49;7.43;;;1.52;;
36751;SDS011;22718;49.494;7.036;2023-11-21T00:39:15;3.28;;;0.68;;
36751;SDS011;22718;49.494;7.036;2023-11-21T00:41:41;4.38;;;0.70;;
36751;SDS011;22718;49.494;7.036;2023-11-21T00:44:07;2.58;;;0.82;;
36751;SDS011;22718;49.494;7.036;2023-11-21T00:46:33;5.72;;;0.90;;
36751;SDS011;22718;49.494;7.036;2023-11-21T00:48:59;2.88;;;0.85;;
36751;SDS011;22718;49.494;7.036;2023-11-21T00:51:25;3.35;;;1.10;;
36751;SDS011;22718;49.494;7.036;2023-11-21T00:53:50;5.53;;;1.60;;
36751;SDS011;22718;49.494;7.036;2023-11-21T00:56:16;6.53;;;1.00;;
36751;SDS011;22718;49.494;7.036;2023-11-21T00:58:44;5.30;;;1.55;;
36751;SDS011;22718;49.494;7.036;2023-11-21T01:01:16;5.80;;;1.50;;
36751;SDS011;22718;49.494;7.036;2023-11-21T01:03:42;4.78;;;1.40;;
36751;SDS011;22718;49.494;7.036;2023-11-21T01:06:14;5.25;;;1.75;;
36751;SDS011;22718;49.494;7.036;2023-11-21T01:08:43;5.53;;;2.00;;
36751;SDS011;22718;49.494;7.036;2023-11-21T01:11:09;5.22;;;1.85;;
36751;SDS011;22718;49.494;7.036;2023-11-21T01:13:39;3.35;;;1.23;;
36751;SDS011;22718;49.494;7.036;2023-11-21T01:16:05;4.80;;;1.60;;
36751;SDS011;22718;49.494;7.036;2023-11-21T01:18:31;5.85;;;1.40;;
36751;SDS011;22718;49.494;7.036;2023-11-21T01:21:00;3.80;;;1.40;;
36751;SDS011;22718;49.494;7.036;2023-11-21T01:23:28;8.40;;;1.15;;
36751;SDS011;22718;49.494;7.036;2023-11-21T01:25:55;2.92;;;1.00;;
36751;SDS011;22718;49.494;7.036;2023-11-21T01:28:22;6.07;;;1.85;;
36751;SDS011;22718;49.494;7.036;2023-11-21T01:30:48;4.97;;;1.58;;
36751;SDS011;22718;49.494;7.036;2023-11-21T01:33:14;5.38;;;1.40;;
36751;SDS011;22718;49.494;7.036;2023-11-21T01:35:40;4.05;;;1.50;;
36751;SDS011;22718;49.494;7.036;2023-11-21T01:38:07;4.82;;;1.75;;
36751;SDS011;22718;49.494;7.036;2023-11-21T01:40:35;4.30;;;1.67;;
36751;SDS011;22718;49.494;7.036;2023-11-21T01:43:01;7.07;;;2.22;;
36751;SDS011;22718;49.494;7.036;2023-11-21T01:45:29;4.82;;;2.22;;
36751;SDS011;22718;49.494;7.036;2023-11-21T01:48:01;6.00;;;2.65;;
36751;SDS011;22718;49.494;7.036;2023-11-21T01:50:32;6.78;;;2.42;;
36751;SDS011;22718;49.494;7.036;2023-11-21T01:52:58;7.65;;;2.67;;
36751;SDS011;22718;49.494;7.036;2023-11-21T01:55:25;7.38;;;2.92;;
36751;SDS011;22718;49.494;7.036;2023-11-21T01:57:52;7.45;;;3.50;;
36751;SDS011;22718;49.494;7.036;2023-11-21T02:00:18;5.43;;;2.45;;
36751;SDS011;22718;49.494;7.036;2023-11-21T02:02:48;5.80;;;2.70;;
36751;SDS011;22718;49.494;7.036;2023-11-21T02:05:17;4.35;;;1.67;;
36751;SDS011;22718;49.494;7.036;2023-11-21T02:07:44;7.85;;;2.35;;
36751;SDS011;22718;49.494;7.036;2023-11-21T02:10:12;5.63;;;1.95;;
36751;SDS011;22718;49.494;7.036;2023-11-21T02:12:41;6.30;;;1.88;;
36751;SDS011;22718;49.494;7.036;2023-11-21T02:15:10;5.18;;;2.10;;
36751;SDS011;22718;49.494;7.036;2023-11-21T02:17:45;5.43;;;2.28;;
36751;SDS011;22718;49.494;7.036;2023-11-21T02:20:18;8.68;;;2.42;;
36751;SDS011;22718;49.494;7.036;2023-11-21T02:22:49;4.93;;;1.80;;
36751;SDS011;22718;49.494;7.036;2023-11-21T02:25:20;6.43;;;1.65;;
36751;SDS011;22718;49.494;7.036;2023-11-21T02:27:48;5.88;;;2.40;;
36751;SDS011;22718;49.494;7.036;2023-11-21T02:30:14;4.47;;;1.60;;
36751;SDS011;22718;49.494;7.036;2023-11-21T02:32:43;5.22;;;2.13;;
36751;SDS011;22718;49.494;7.036;2023-11-21T02:35:10;7.00;;;2.08;;
36751;SDS011;22718;49.494;7.036;2023-11-21T02:37:37;4.78;;;1.75;;
36751;SDS011;22718;49.494;7.036;2023-11-21T02:40:06;7.10;;;2.30;;
36751;SDS011;22718;49.494;7.036;2023-11-21T02:42:37;5.25;;;1.92;;
36751;SDS011;22718;49.494;7.036;2023-11-21T02:45:04;6.90;;;2.45;;
36751;SDS011;22718;49.494;7.036;2023-11-21T02:47:31;6.63;;;2.08;;
36751;SDS011;22718;49.494;7.036;2023-11-21T02:49:56;7.85;;;2.33;;
36751;SDS011;22718;49.494;7.036;2023-11-21T02:52:22;5.65;;;1.60;;
36751;SDS011;22718;49.494;7.036;2023-11-21T02:54:48;7.00;;;2.83;;
36751;SDS011;22718;49.494;7.036;2023-11-21T02:57:14;5.57;;;1.85;;
36751;SDS011;22718;49.494;7.036;2023-11-21T02:59:44;6.20;;;1.65;;
36751;SDS011;22718;49.494;7.036;2023-11-21T03:02:10;5.75;;;2.13;;
36751;SDS011;22718;49.494;7.036;2023-11-21T03:04:35;6.82;;;1.92;;
36751;SDS011;22718;49.494;7.036;2023-11-21T03:07:03;3.95;;;1.30;;
36751;SDS011;22718;49.494;7.036;2023-11-21T03:09:30;4.10;;;1.40;;
36751;SDS011;22718;49.494;7.036;2023-11-21T03:11:56;3.47;;;1.10;;
36751;SDS011;22718;49.494;7.036;2023-11-21T03:14:25;3.88;;;1.25;;
36751;SDS011;22718;49.494;7.036;2023-11-21T03:16:50;2.88;;;0.98;;
36751;SDS011;22718;49.494;7.036;2023-11-21T03:19:16;5.97;;;1.35;;
36751;SDS011;22718;49.494;7.036;2023-11-21T03:21:42;3.50;;;0.95;;
36751;SDS011;22718;49.494;7.036;2023-11-21T03:24:08;2.75;;;0.57;;
36751;SDS011;22718;49.494;7.036;2023-11-21T03:26:34;4.35;;;0.60;;
36751;SDS011;22718;49.494;7.036;2023-11-21T03:29:00;1.85;;;0.50;;
36751;SDS011;22718;49.494;7.036;2023-11-21T03:31:26;3.20;;;0.50;;
36751;SDS011;22718;49.494;7.036;2023-11-21T03:33:51;3.15;;;0.70;;
36751;SDS011;22718;49.494;7.036;2023-11-21T03:36:19;4.40;;;0.73;;
36751;SDS011;22718;49.494;7.036;2023-11-21T03:38:47;2.70;;;0.60;;
36751;SDS011;22718;49.494;7.036;2023-11-21T03:41:17;3.50;;;0.43;;
36751;SDS011;22718;49.494;7.036;2023-11-21T03:43:42;3.03;;;0.60;;
36751;SDS011;22718;49.494;7.036;2023-11-21T03:46:08;2.63;;;0.55;;
36751;SDS011;22718;49.494;7.036;2023-11-21T03:48:33;2.25;;;0.60;;
36751;SDS011;22718;49.494;7.036;2023-11-21T03:50:59;1.55;;;0.43;;
36751;SDS011;22718;49.494;7.036;2023-11-21T03:53:25;2.72;;;0.65;;
36751;SDS011;22718;49.494;7.036;2023-11-21T03:55:53;2.20;;;0.40;;
36751;SDS011;22718;49.494;7.036;2023-11-21T03:58:19;1.48;;;0.40;;
36751;SDS011;22718;49.494;7.036;2023-11-21T04:00:46;1.38;;;0.32;;
36751;SDS011;22718;49.494;7.036;2023-11-21T04:03:17;3.75;;;0.40;;
36751;SDS011;22718;49.494;7.036;2023-11-21T04:05:47;4.10;;;0.50;;
36751;SDS011;22718;49.494;7.036;2023-11-21T04:08:12;1.67;;;0.40;;
36751;SDS011;22718;49.494;7.036;2023-11-21T04:10:38;3.78;;;0.30;;
36751;SDS011;22718;49.494;7.036;2023-11-21T04:13:07;2.90;;;0.20;;
36751;SDS011;22718;49.494;7.036;2023-11-21T04:15:32;3.75;;;0.57;;
36751;SDS011;22718;49.494;7.036;2023-11-21T04:17:58;1.98;;;0.40;;
36751;SDS011;22718;49.494;7.036;2023-11-21T04:20:24;2.65;;;0.30;;
36751;SDS011;22718;49.494;7.036;2023-11-21T04:22:53;2.03;;;0.32;;
36751;SDS011;22718;49.494;7.036;2023-11-21T04:25:18;1.88;;;0.40;;
36751;SDS011;22718;49.494;7.036;2023-11-21T04:27:45;2.97;;;0.30;;
36751;SDS011;22718;49.494;7.036;2023-11-21T04:30:11;2.55;;;0.40;;
36751;SDS011;22718;49.494;7.036;2023-11-21T04:32:38;3.13;;;0.63;;
36751;SDS011;22718;49.494;7.036;2023-11-21T04:35:07;2.42;;;0.40;;
36751;SDS011;22718;49.494;7.036;2023-11-21T04:37:36;1.65;;;0.70;;
36751;SDS011;22718;49.494;7.036;2023-11-21T04:40:07;1.80;;;0.35;;
36751;SDS011;22718;49.494;7.036;2023-11-21T04:42:34;1.42;;;0.22;;
36751;SDS011;22718;49.494;7.036;2023-11-21T04:45:01;1.55;;;0.30;;
36751;SDS011;22718;49.494;7.036;2023-11-21T04:47:32;2.28;;;0.35;;
36751;SDS011;22718;49.494;7.036;2023-11-21T04:49:59;0.82;;;0.20;;
36751;SDS011;22718;49.494;7.036;2023-11-21T04:52:26;2.47;;;0.30;;
36751;SDS011;22718;49.494;7.036;2023-11-21T04:54:51;1.30;;;0.17;;
36751;SDS011;22718;49.494;7.036;2023-11-21T04:57:19;1.20;;;0.20;;
36751;SDS011;22718;49.494;7.036;2023-11-21T04:59:45;1.30;;;0.20;;
36751;SDS011;22718;49.494;7.036;2023-11-21T05:02:16;1.20;;;0.20;;
36751;SDS011;22718;49.494;7.036;2023-11-21T05:04:44;1.00;;;0.17;;
36751;SDS011;22718;49.494;7.036;2023-11-21T05:07:10;1.77;;;0.30;;
36751;SDS011;22718;49.494;7.036;2023-11-21T05:09:40;0.90;;;0.20;;
36751;SDS011;22718;49.494;7.036;2023-11-21T05:12:10;1.15;;;0.20;;
36751;SDS011;22718;49.494;7.036;2023-11-21T05:14:40;1.02;;;0.20;;
36751;SDS011;22718;49.494;7.036;2023-11-21T05:17:07;3.53;;;0.30;;
36751;SDS011;22718;49.494;7.036;2023-11-21T05:19:33;1.02;;;0.20;;
36751;SDS011;22718;49.494;7.036;2023-11-21T05:22:00;0.63;;;0.20;;
36751;SDS011;22718;49.494;7.036;2023-11-21T05:24:29;1.60;;;0.25;;
36751;SDS011;22718;49.494;7.036;2023-11-21T05:26:55;1.83;;;0.25;;
36751;SDS011;22718;49.494;7.036;2023-11-21T05:29:21;1.42;;;0.40;;
36751;SDS011;22718;49.494;7.036;2023-11-21T05:31:46;2.20;;;0.50;;
36751;SDS011;22718;49.494;7.036;2023-11-21T05:34:13;1.80;;;0.40;;
36751;SDS011;22718;49.494;7.036;2023-11-21T05:36:39;1.63;;;0.30;;
36751;SDS011;22718;49.494;7.036;2023-11-21T05:39:06;3.45;;;0.85;;
36751;SDS011;22718;49.494;7.036;2023-11-21T05:41:33;2.53;;;0.50;;
36751;SDS011;22718;49.494;7.036;2023-11-21T05:44:01;1.67;;;0.38;;
36751;SDS011;22718;49.494;7.036;2023-11-21T05:46:27;2.80;;;0.40;;
36751;SDS011;22718;49.494;7.036;2023-11-21T05:48:52;4.07;;;0.55;;
36751;SDS011;22718;49.494;7.036;2023-11-21T05:51:18;1.88;;;0.38;;
36751;SDS011;22718;49.494;7.036;2023-11-21T05:53:44;2.25;;;0.40;;
36751;SDS011;22718;49.494;7.036;2023-11-21T05:56:10;1.63;;;0.40;;
36751;SDS011;22718;49.494;7.036;2023-11-21T05:58:35;2.13;;;0.50;;
36751;SDS011;22718;49.494;7.036;2023-11-21T06:01:01;0.60;;;0.20;;
36751;SDS011;22718;49.494;7.036;2023-11-21T06:03:32;1.40;;;0.38;;
36751;SDS011;22718;49.494;7.036;2023-11-21T06:05:58;1.67;;;0.20;;
36751;SDS011;22718;49.494;7.036;2023-11-21T06:08:23;1.73;;;0.20;;
36751;SDS011;22718;49.494;7.036;2023-11-21T06:10:50;0.90;;;0.20;;
36751;SDS011;22718;49.494;7.036;2023-11-21T06:13:16;2.15;;;0.60;;
36751;SDS011;22718;49.494;7.036;2023-11-21T06:15:44;2.80;;;0.30;;
36751;SDS011;22718;49.494;7.036;2023-11-21T06:18:13;1.60;;;0.40;;
36751;SDS011;22718;49.494;7.036;2023-11-21T06:20:39;4.72;;;0.75;;
36751;SDS011;22718;49.494;7.036;2023-11-21T06:23:04;2.78;;;0.40;;
36751;SDS011;22718;49.494;7.036;2023-11-21T06:25:31;1.40;;;0.30;;
36751;SDS011;22718;49.494;7.036;2023-11-21T06:27:58;2.60;;;0.80;;
36751;SDS011;22718;49.494;7.036;2023-11-21T06:30:26;2.40;;;0.57;;
36751;SDS011;22718;49.494;7.036;2023-11-21T06:32:54;3.88;;;0.60;;
36751;SDS011;22718;49.494;7.036;2023-11-21T06:35:22;2.28;;;0.45;;
36751;SDS011;22718;49.494;7.036;2023-11-21T06:37:48;2.35;;;0.70;;
36751;SDS011;22718;49.494;7.036;2023-11-21T06:40:15;6.68;;;0.60;;
36751;SDS011;22718;49.494;7.036;2023-11-21T06:42:46;2.80;;;0.52;;
36751;SDS011;22718;49.494;7.036;2023-11-21T06:45:12;2.67;;;0.52;;
36751;SDS011;22718;49.494;7.036;2023-11-21T06:47:38;2.72;;;0.60;;
36751;SDS011;22718;49.494;7.036;2023-11-21T06:50:04;3.25;;;0.50;;
36751;SDS011;22718;49.494;7.036;2023-11-21T06:52:33;1.60;;;0.50;;
36751;SDS011;22718;49.494;7.036;2023-11-21T06:54:59;2.78;;;0.60;;
36751;SDS011;22718;49.494;7.036;2023-11-21T06:57:25;2.17;;;0.50;;
36751;SDS011;22718;49.494;7.036;2023-11-21T06:59:52;2.25;;;0.40;;
36751;SDS011;22718;49.494;7.036;2023-11-21T07:02:17;2.10;;;0.50;;
36751;SDS011;22718;49.494;7.036;2023-11-21T07:04:45;1.75;;;0.38;;
36751;SDS011;22718;49.494;7.036;2023-11-21T07:07:12;1.58;;;0.40;;
36751;SDS011;22718;49.494;7.036;2023-11-21T07:09:38;2.47;;;0.50;;
36751;SDS011;22718;49.494;7.036;2023-11-21T07:12:04;2.55;;;0.70;;
36751;SDS011;22718;49.494;7.036;2023-11-21T07:14:33;2.80;;;0.70;;
36751;SDS011;22718;49.494;7.036;2023-11-21T07:16:59;4.13;;;1.20;;
36751;SDS011;22718;49.494;7.036;2023-11-21T07:19:24;3.80;;;1.30;;
36751;SDS011;22718;49.494;7.036;2023-11-21T07:21:50;9.93;;;1.45;;
36751;SDS011;22718;49.494;7.036;2023-11-21T07:24:18;5.07;;;1.67;;
36751;SDS011;22718;49.494;7.036;2023-11-21T07:26:44;7.32;;;2.75;;
36751;SDS011;22718;49.494;7.036;2023-11-21T07:29:09;6.07;;;1.88;;
36751;SDS011;22718;49.494;7.036;2023-11-21T07:31:36;5.93;;;2.00;;
36751;SDS011;22718;49.494;7.036;2023-11-21T07:34:03;3.85;;;1.40;;
36751;SDS011;22718;49.494;7.036;2023-11-21T07:36:30;5.82;;;2.03;;
36751;SDS011;22718;49.494;7.036;2023-11-21T07:38:57;8.93;;;2.08;;
36751;SDS011;22718;49.494;7.036;2023-11-21T07:41:31;7.72;;;1.60;;
36751;SDS011;22718;49.494;7.036;2023-11-21T07:43:57;4.70;;;2.03;;
36751;SDS011;22718;49.494;7.036;2023-11-21T07:46:23;4.53;;;1.58;;
36751;SDS011;22718;49.494;7.036;2023-11-21T07:48:51;5.40;;;1.25;;
36751;SDS011;22718;49.494;7.036;2023-11-21T07:51:17;4.28;;;1.13;;
36751;SDS011;22718;49.494;7.036;2023-11-21T07:53:43;7.15;;;1.60;;
36751;SDS011;22718;49.494;7.036;2023-11-21T07:56:09;5.43;;;1.33;;
36751;SDS011;22718;49.494;7.036;2023-11-21T07:58:36;6.45;;;1.80;;
36751;SDS011;22718;49.494;7.036;2023-11-21T08:01:02;3.92;;;1.70;;
36751;SDS011;22718;49.494;7.036;2023-11-21T08:03:28;6.10;;;2.63;;
36751;SDS011;22718;49.494;7.036;2023-11-21T08:05:55;4.13;;;1.27;;
36751;SDS011;22718;49.494;7.036;2023-11-21T08:08:21;4.32;;;1.17;;
36751;SDS011;22718;49.494;7.036;2023-11-21T08:10:47;9.32;;;1.30;;
36751;SDS011;22718;49.494;7.036;2023-11-21T08:13:30;4.20;;;1.05;;
36751;SDS011;22718;49.494;7.036;2023-11-21T08:15:57;4.97;;;0.50;;
36751;SDS011;22718;49.494;7.036;2023-11-21T08:18:30;2.90;;;0.90;;
36751;SDS011;22718;49.494;7.036;2023-11-21T08:20:56;3.42;;;0.68;;
36751;SDS011;22718;49.494;7.036;2023-11-21T08:23:23;3.47;;;0.60;;
36751;SDS011;22718;49.494;7.036;2023-11-21T08:25:52;2.95;;;0.90;;
36751;SDS011;22718;49.494;7.036;2023-11-21T08:28:18;2.38;;;0.73;;
36751;SDS011;22718;49.494;7.036;2023-11-21T08:30:47;3.33;;;1.00;;
36751;SDS011;22718;49.494;7.036;2023-11-21T08:33:13;3.88;;;0.80;;
36751;SDS011;22718;49.494;7.036;2023-11-21T08:35:40;2.78;;;0.63;;
36751;SDS011;22718;49.494;7.036;2023-11-21T08:38:06;2.78;;;0.80;;
36751;SDS011;22718;49.494;7.036;2023-11-21T08:40:43;4.45;;;0.80;;
36751;SDS011;22718;49.494;7.036;2023-11-21T08:43:10;2.08;;;0.60;;
36751;SDS011;22718;49.494;7.036;2023-11-21T08:45:37;3.13;;;0.95;;
36751;SDS011;22718;49.494;7.036;2023-11-21T08:48:04;0.95;;;0.30;;
36751;SDS011;22718;49.494;7.036;2023-11-21T08:50:32;2.85;;;0.80;;
36751;SDS011;22718;49.494;7.036;2023-11-21T08:52:59;3.25;;;0.80;;
36751;SDS011;22718;49.494;7.036;2023-11-21T08:55:39;2.33;;;0.50;;
36751;SDS011;22718;49.494;7.036;2023-11-21T08:58:15;1.38;;;0.43;;
36751;SDS011;22718;49.494;7.036;2023-11-21T09:00:41;3.28;;;0.50;;
36751;SDS011;22718;49.494;7.036;2023-11-21T09:03:10;2.45;;;0.50;;
36751;SDS011;22718;49.494;7.036;2023-11-21T09:05:37;1.77;;;0.45;;
36751;SDS011;22718;49.494;7.036;2023-11-21T09:08:07;2.10;;;0.70;;
36751;SDS011;22718;49.494;7.036;2023-11-21T09:10:33;2.25;;;0.40;;
36751;SDS011;22718;49.494;7.036;2023-11-21T09:13:02;2.40;;;0.33;;
36751;SDS011;22718;49.494;7.036;2023-11-21T09:15:28;1.75;;;0.38;;
36751;SDS011;22718;49.494;7.036;2023-11-21T09:17:53;1.75;;;0.40;;
36751;SDS011;22718;49.494;7.036;2023-11-21T09:20:20;2.05;;;0.50;;
36751;SDS011;22718;49.494;7.036;2023-11-21T09:22:49;2.25;;;0.38;;
36751;SDS011;22718;49.494;7.036;2023-11-21T09:25:16;1.50;;;0.38;;
36751;SDS011;22718;49.494;7.036;2023-11-21T09:27:44;1.35;;;0.30;;
36751;SDS011;22718;49.494;7.036;2023-11-21T09:30:11;1.30;;;0.30;;
36751;SDS011;22718;49.494;7.036;2023-11-21T09:32:39;1.33;;;0.30;;
36751;SDS011;22718;49.494;7.036;2023-11-21T09:35:05;1.40;;;0.30;;
36751;SDS011;22718;49.494;7.036;2023-11-21T09:37:33;4.18;;;0.25;;
36751;SDS011;22718;49.494;7.036;2023-11-21T09:40:02;3.20;;;0.45;;
36751;SDS011;22718;49.494;7.036;2023-11-21T09:42:30;1.45;;;0.30;;
36751;SDS011;22718;49.494;7.036;2023-11-21T09:45:18;1.60;;;0.20;;
36751;SDS011;22718;49.494;7.036;2023-11-21T09:47:50;1.80;;;0.30;;
36751;SDS011;22718;49.494;7.036;2023-11-21T09:50:20;1.88;;;0.45;;
36751;SDS011;22718;49.494;7.036;2023-11-21T09:52:54;2.97;;;0.55;;
36751;SDS011;22718;49.494;7.036;2023-11-21T09:55:34;2.60;;;0.70;;
36751;SDS011;22718;49.494;7.036;2023-11-21T09:58:05;2.42;;;0.55;;
36751;SDS011;22718;49.494;7.036;2023-11-21T10:00:41;1.60;;;0.47;;
36751;SDS011;22718;49.494;7.036;2023-11-21T10:03:08;2.33;;;0.63;;
36751;SDS011;22718;49.494;7.036;2023-11-21T10:05:38;2.70;;;0.45;;
36751;SDS011;22718;49.494;7.036;2023-11-21T10:10:45;4.15;;;0.43;;
36751;SDS011;22718;49.494;7.036;2023-11-21T10:13:15;3.10;;;0.63;;
36751;SDS011;22718;49.494;7.036;2023-11-21T10:15:43;3.95;;;0.60;;
36751;SDS011;22718;49.494;7.036;2023-11-21T10:18:13;2.40;;;0.63;;
36751;SDS011;22718;49.494;7.036;2023-11-21T10:20:41;4.10;;;0.80;;
36751;SDS011;22718;49.494;7.036;2023-11-21T10:23:10;2.97;;;0.90;;
36751;SDS011;22718;49.494;7.036;2023-11-21T10:25:38;3.63;;;1.00;;
36751;SDS011;22718;49.494;7.036;2023-11-21T10:28:05;5.13;;;0.93;;
36751;SDS011;22718;49.494;7.036;2023-11-21T10:30:34;2.95;;;1.02;;
36751;SDS011;22718;49.494;7.036;2023-11-21T10:33:15;3.33;;;0.80;;
36751;SDS011;22718;49.494;7.036;2023-11-21T10:38:23;4.15;;;0.80;;
36751;SDS011;22718;49.494;7.036;2023-11-21T10:40:53;2.35;;;0.60;;
36751;SDS011;22718;49.494;7.036;2023-11-21T10:43:20;3.72;;;0.90;;
36751;SDS011;22718;49.494;7.036;2023-11-21T10:45:50;3.72;;;1.00;;
36751;SDS011;22718;49.494;7.036;2023-11-21T10:48:17;3.67;;;1.30;;
36751;SDS011;22718;49.494;7.036;2023-11-21T10:50:44;5.00;;;1.30;;
36751;SDS011;22718;49.494;7.036;2023-11-21T10:53:11;3.38;;;0.95;;
36751;SDS011;22718;49.494;7.036;2023-11-21T10:55:38;3.30;;;1.15;;
36751;SDS011;22718;49.494;7.036;2023-11-21T10:58:04;2.90;;;1.15;;
36751;SDS011;22718;49.494;7.036;2023-11-21T11:00:31;4.38;;;1.58;;
36751;SDS011;22718;49.494;7.036;2023-11-21T11:02:59;3.78;;;1.40;;
36751;SDS011;22718;49.494;7.036;2023-11-21T11:05:28;3.38;;;1.13;;
36751;SDS011;22718;49.494;7.036;2023-11-21T11:08:11;7.03;;;1.40;;
36751;SDS011;22718;49.494;7.036;2023-11-21T11:10:37;5.53;;;1.45;;
36751;SDS011;22718;49.494;7.036;2023-11-21T11:13:04;3.80;;;1.05;;
36751;SDS011;22718;49.494;7.036;2023-11-21T11:15:32;2.70;;;0.85;;
36751;SDS011;22718;49.494;7.036;2023-11-21T11:17:58;3.05;;;1.17;;
36751;SDS011;22718;49.494;7.036;2023-11-21T11:20:32;4.80;;;1.40;;
36751;SDS011;22718;49.494;7.036;2023-11-21T11:28:22;6.53;;;1.13;;
36751;SDS011;22718;49.494;7.036;2023-11-21T11:33:36;4.47;;;1.40;;
36751;SDS011;22718;49.494;7.036;2023-11-21T11:36:28;3.92;;;1.20;;
36751;SDS011;22718;49.494;7.036;2023-11-21T11:39:40;3.53;;;1.10;;
36751;SDS011;22718;49.494;7.036;2023-11-21T11:42:11;4.68;;;0.80;;
36751;SDS011;22718;49.494;7.036;2023-11-21T11:47:15;3.60;;;1.35;;
36751;SDS011;22718;49.494;7.036;2023-11-21T11:52:46;4.10;;;0.98;;
36751;SDS011;22718;49.494;7.036;2023-11-21T11:55:18;4.88;;;1.30;;
36751;SDS011;22718;49.494;7.036;2023-11-21T11:57:52;4.63;;;0.93;;
36751;SDS011;22718;49.494;7.036;2023-11-21T12:03:02;4.50;;;1.10;;
36751;SDS011;22718;49.494;7.036;2023-11-21T12:05:36;5.25;;;1.42;;
36751;SDS011;22718;49.494;7.036;2023-11-21T12:08:07;3.42;;;1.38;;
36751;SDS011;22718;49.494;7.036;2023-11-21T12:10:36;4.97;;;1.25;;
36751;SDS011;22718;49.494;7.036;2023-11-21T12:15:44;4.18;;;1.42;;
36751;SDS011;22718;49.494;7.036;2023-11-21T12:18:44;3.63;;;1.00;;
36751;SDS011;22718;49.494;7.036;2023-11-21T12:21:31;8.98;;;3.65;;
36751;SDS011;22718;49.494;7.036;2023-11-21T12:24:02;4.95;;;1.70;;
36751;SDS011;22718;49.494;7.036;2023-11-21T12:27:09;7.38;;;3.50;;
36751;SDS011;22718;49.494;7.036;2023-11-21T12:29:43;5.05;;;1.92;;
36751;SDS011;22718;49.494;7.036;2023-11-21T12:32:24;4.72;;;1.58;;
36751;SDS011;22718;49.494;7.036;2023-11-21T12:38:37;7.20;;;1.67;;
36751;SDS011;22718;49.494;7.036;2023-11-21T12:41:04;6.05;;;1.77;;
36751;SDS011;22718;49.494;7.036;2023-11-21T12:43:36;4.15;;;1.42;;
36751;SDS011;22718;49.494;7.036;2023-11-21T12:46:08;6.25;;;1.63;;
36751;SDS011;22718;49.494;7.036;2023-11-21T12:49:01;4.93;;;1.85;;
36751;SDS011;22718;49.494;7.036;2023-11-21T12:51:44;3.17;;;1.23;;
36751;SDS011;22718;49.494;7.036;2023-11-21T12:54:12;5.95;;;1.63;;
36751;SDS011;22718;49.494;7.036;2023-11-21T12:59:13;4.97;;;1.55;;
36751;SDS011;22718;49.494;7.036;2023-11-21T13:01:54;5.65;;;1.30;;
36751;SDS011;22718;49.494;7.036;2023-11-21T13:04:34;3.45;;;1.35;;
36751;SDS011;22718;49.494;7.036;2023-11-21T13:07:04;4.38;;;1.40;;
36751;SDS011;22718;49.494;7.036;2023-11-21T13:09:41;6.63;;;2.63;;
36751;SDS011;22718;49.494;7.036;2023-11-21T13:12:08;4.05;;;1.30;;
36751;SDS011;22718;49.494;7.036;2023-11-21T13:17:36;5.40;;;2.17;;
36751;SDS011;22718;49.494;7.036;2023-11-21T13:20:28;6.90;;;2.17;;
36751;SDS011;22718;49.494;7.036;2023-11-21T13:23:46;3.90;;;1.35;;
36751;SDS011;22718;49.494;7.036;2023-11-21T13:26:16;6.43;;;1.77;;
36751;SDS011;22718;49.494;7.036;2023-11-21T13:28:51;7.07;;;2.58;;
36751;SDS011;22718;49.494;7.036;2023-11-21T13:31:24;7.43;;;2.63;;
36751;SDS011;22718;49.494;7.036;2023-11-21T13:34:02;4.28;;;1.70;;
36751;SDS011;22718;49.494;7.036;2023-11-21T13:36:35;6.85;;;2.50;;
36751;SDS011;22718;49.494;7.036;2023-11-21T13:39:03;7.40;;;1.77;;
36751;SDS011;22718;49.494;7.036;2023-11-21T13:41:52;6.35;;;2.70;;
36751;SDS011;22718;49.494;7.036;2023-11-21T13:44:56;6.15;;;2.63;;
36751;SDS011;22718;49.494;7.036;2023-11-21T13:47:22;6.18;;;2.25;;
36751;SDS011;22718;49.494;7.036;2023-11-21T13:49:55;6.15;;;2.45;;
36751;SDS011;22718;49.494;7.036;2023-11-21T13:52:43;7.95;;;3.53;;
36751;SDS011;22718;49.494;7.036;2023-11-21T13:55:46;3.90;;;1.23;;
36751;SDS011;22718;49.494;7.036;2023-11-21T13:58:25;5.82;;;1.65;;
36751;SDS011;22718;49.494;7.036;2023-11-21T14:01:17;5.72;;;1.70;;
36751;SDS011;22718;49.494;7.036;2023-11-21T14:04:12;4.32;;;1.77;;
36751;SDS011;22718;49.494;7.036;2023-11-21T14:07:01;4.13;;;1.42;;
36751;SDS011;22718;49.494;7.036;2023-11-21T14:10:15;5.43;;;1.92;;
36751;SDS011;22718;49.494;7.036;2023-11-21T14:13:09;4.63;;;1.95;;
36751;SDS011;22718;49.494;7.036;2023-11-21T14:15:56;6.32;;;2.28;;
36751;SDS011;22718;49.494;7.036;2023-11-21T14:18:49;6.90;;;2.25;;
36751;SDS011;22718;49.494;7.036;2023-11-21T14:21:45;5.00;;;1.40;;
36751;SDS011;22718;49.494;7.036;2023-11-21T14:24:16;7.57;;;1.92;;
36751;SDS011;22718;49.494;7.036;2023-11-21T14:27:06;6.07;;;1.80;;
36751;SDS011;22718;49.494;7.036;2023-11-21T14:30:02;6.43;;;2.10;;
36751;SDS011;22718;49.494;7.036;2023-11-21T14:32:53;3.33;;;1.10;;
36751;SDS011;22718;49.494;7.036;2023-11-21T14:35:39;5.82;;;2.20;;
36751;SDS011;22718;49.494;7.036;2023-11-21T14:38:20;6.82;;;3.03;;
36751;SDS011;22718;49.494;7.036;2023-11-21T14:40:49;9.70;;;2.50;;
36751;SDS011;22718;49.494;7.036;2023-11-21T14:45:51;9.30;;;3.15;;
36751;SDS011;22718;49.494;7.036;2023-11-21T14:48:20;7.55;;;3.42;;
36751;SDS011;22718;49.494;7.036;2023-11-21T14:51:13;8.77;;;3.85;;
36751;SDS011;22718;49.494;7.036;2023-11-21T14:53:58;9.02;;;4.00;;
36751;SDS011;22718;49.494;7.036;2023-11-21T14:56:37;5.17;;;2.13;;
36751;SDS011;22718;49.494;7.036;2023-11-21T14:59:15;6.65;;;2.60;;
36751;SDS011;22718;49.494;7.036;2023-11-21T15:02:08;7.78;;;2.45;;
36751;SDS011;22718;49.494;7.036;2023-11-21T15:05:04;15.27;;;4.05;;
36751;SDS011;22718;49.494;7.036;2023-11-21T15:15:09;8.30;;;3.80;;
36751;SDS011;22718;49.494;7.036;2023-11-21T15:17:41;7.05;;;2.75;;
36751;SDS011;22718;49.494;7.036;2023-11-21T15:20:18;8.73;;;3.08;;
36751;SDS011;22718;49.494;7.036;2023-11-21T15:25:32;8.45;;;2.42;;
36751;SDS011;22718;49.494;7.036;2023-11-21T15:34:02;10.88;;;3.55;;
36751;SDS011;22718;49.494;7.036;2023-11-21T15:36:30;11.60;;;4.53;;
36751;SDS011;22718;49.494;7.036;2023-11-21T15:39:02;10.55;;;4.88;;
36751;SDS011;22718;49.494;7.036;2023-11-21T15:41:31;8.82;;;3.92;;
36751;SDS011;22718;49.494;7.036;2023-11-21T15:44:03;8.00;;;4.13;;
36751;SDS011;22718;49.494;7.036;2023-11-21T15:46:35;10.68;;;4.85;;
36751;SDS011;22718;49.494;7.036;2023-11-21T15:49:03;10.25;;;4.20;;
36751;SDS011;22718;49.494;7.036;2023-11-21T15:51:59;10.20;;;4.30;;
36751;SDS011;22718;49.494;7.036;2023-11-21T15:55:16;10.25;;;4.43;;
36751;SDS011;22718;49.494;7.036;2023-11-21T15:58:33;11.40;;;4.40;;
36751;SDS011;22718;49.494;7.036;2023-11-21T16:04:54;12.65;;;4.32;;
36751;SDS011;22718;49.494;7.036;2023-11-21T16:07:31;12.43;;;4.60;;